createdAt,value
2019-05-16T00:01:19.325Z,8.90
2019-05-16T00:03:48.864Z,8.90
2019-05-16T00:06:18.109Z,8.80
2019-05-16T00:08:48.075Z,8.80
2019-05-16T00:11:17.975Z,8.80
2019-05-16T00:13:48.874Z,8.80
2019-05-16T00:16:18.705Z,8.70
2019-05-16T00:18:48.180Z,8.80
2019-05-16T00:21:18.014Z,8.80
2019-05-16T00:23:48.518Z,8.80
2019-05-16T00:26:19.829Z,8.70
2019-05-16T00:28:48.612Z,8.70
2019-05-16T00:31:18.338Z,8.70
2019-05-16T00:33:48.783Z,8.70
2019-05-16T00:36:18.862Z,8.60
2019-05-16T00:38:48.589Z,8.70
2019-05-16T00:41:18.062Z,8.70
2019-05-16T00:43:48.491Z,8.60
2019-05-16T00:46:20.090Z,8.60
2019-05-16T00:48:48.846Z,8.50
2019-05-16T00:51:18.440Z,8.40
2019-05-16T00:53:48.370Z,8.30
2019-05-16T00:56:18.559Z,8.30
2019-05-16T00:58:48.769Z,8.20
2019-05-16T01:01:19.009Z,8.20
2019-05-16T01:03:48.402Z,8.00
2019-05-16T01:06:22.577Z,7.90
2019-05-16T01:08:48.899Z,7.90
2019-05-16T01:11:18.619Z,7.80
2019-05-16T01:13:48.786Z,7.80
2019-05-16T01:16:18.765Z,7.70
2019-05-16T01:18:48.659Z,7.50
2019-05-16T01:21:18.567Z,7.50
2019-05-16T01:23:48.423Z,7.50
2019-05-16T01:26:18.564Z,7.40
2019-05-16T01:28:48.494Z,7.20
2019-05-16T01:31:19.185Z,7.10
2019-05-16T01:33:48.398Z,7.00
2019-05-16T01:36:26.242Z,7.00
2019-05-16T01:38:48.272Z,6.90
2019-05-16T01:41:18.056Z,6.90
2019-05-16T01:43:48.410Z,6.80
2019-05-16T01:46:18.087Z,6.70
2019-05-16T01:48:48.436Z,6.60
2019-05-16T01:51:18.378Z,6.60
2019-05-16T01:53:48.890Z,6.60
2019-05-16T01:56:18.497Z,6.60
2019-05-16T01:58:48.965Z,6.60
2019-05-16T02:01:19.088Z,6.60
2019-05-16T02:03:49.026Z,6.60
2019-05-16T02:06:18.483Z,6.50
2019-05-16T02:08:48.691Z,6.50
2019-05-16T02:11:18.253Z,6.40
2019-05-16T02:13:48.492Z,6.40
2019-05-16T02:16:18.749Z,6.30
2019-05-16T02:18:48.838Z,6.40
2019-05-16T02:21:18.328Z,6.30
2019-05-16T02:23:51.341Z,6.20
2019-05-16T02:26:19.104Z,6.30
2019-05-16T02:28:50.690Z,6.20
2019-05-16T02:31:22.435Z,6.20
2019-05-16T02:33:51.110Z,6.70
2019-05-16T02:36:21.780Z,6.70
2019-05-16T02:38:55.433Z,6.60
2019-05-16T02:41:21.871Z,6.70
2019-05-16T02:43:50.997Z,6.70
2019-05-16T02:46:21.736Z,6.70
2019-05-16T02:48:51.891Z,6.60
2019-05-16T02:51:21.590Z,6.50
2019-05-16T02:53:51.257Z,6.40
2019-05-16T02:56:21.339Z,6.40
2019-05-16T02:58:52.140Z,6.40
2019-05-16T03:01:21.791Z,6.40
2019-05-16T03:03:51.652Z,6.40
2019-05-16T03:06:21.626Z,6.20
2019-05-16T03:08:51.578Z,6.20
2019-05-16T03:11:21.357Z,6.10
2019-05-16T03:13:53.638Z,6.20
2019-05-16T03:16:24.157Z,6.30
2019-05-16T03:18:54.284Z,6.10
2019-05-16T03:21:24.284Z,6.10
2019-05-16T03:23:53.302Z,6.10
2019-05-16T03:26:22.305Z,6.00
2019-05-16T03:28:52.205Z,6.00
2019-05-16T03:31:24.333Z,6.10
2019-05-16T03:33:59.821Z,6.10
2019-05-16T03:36:25.266Z,6.20
2019-05-16T03:38:53.434Z,6.20
2019-05-16T03:41:22.478Z,6.10
2019-05-16T03:43:52.206Z,6.10
2019-05-16T03:46:21.715Z,6.10
2019-05-16T03:48:51.798Z,6.00
2019-05-16T03:51:21.789Z,6.00
2019-05-16T03:53:51.007Z,5.90
2019-05-16T03:56:21.793Z,5.90
2019-05-16T03:58:51.124Z,6.00
2019-05-16T04:01:21.146Z,6.00
2019-05-16T04:03:51.309Z,6.00
2019-05-16T04:06:22.151Z,6.10
2019-05-16T04:08:51.354Z,6.00
2019-05-16T04:11:23.254Z,6.10
2019-05-16T04:13:51.325Z,6.10
2019-05-16T04:16:21.063Z,6.10
2019-05-16T04:18:52.370Z,6.00
2019-05-16T04:21:22.040Z,5.90
2019-05-16T04:23:51.291Z,5.90
2019-05-16T04:26:21.731Z,5.90
2019-05-16T04:28:51.599Z,6.00
2019-05-16T04:31:22.102Z,6.00
2019-05-16T04:33:51.819Z,6.00
2019-05-16T04:36:21.429Z,6.00
2019-05-16T04:38:51.914Z,6.00
2019-05-16T04:41:21.739Z,5.90
2019-05-16T04:43:50.987Z,6.00
2019-05-16T04:46:21.475Z,6.00
2019-05-16T04:48:51.061Z,6.00
2019-05-16T04:51:22.011Z,6.00
2019-05-16T04:53:51.232Z,5.90
2019-05-16T04:56:21.700Z,6.00
2019-05-16T04:58:51.605Z,5.90
2019-05-16T05:01:21.462Z,6.00
2019-05-16T05:04:01.824Z,5.80
2019-05-16T05:06:21.496Z,6.00
2019-05-16T05:08:58.322Z,6.10
2019-05-16T05:11:21.728Z,6.10
2019-05-16T05:13:50.871Z,6.20
2019-05-16T05:16:20.524Z,6.30
2019-05-16T05:18:51.546Z,6.30
2019-05-16T05:21:21.057Z,6.30
2019-05-16T05:23:50.891Z,6.40
2019-05-16T05:26:20.161Z,6.50
2019-05-16T05:28:50.747Z,6.50
2019-05-16T05:31:24.584Z,6.60
2019-05-16T05:33:50.896Z,6.50
2019-05-16T05:36:21.075Z,6.50
2019-05-16T05:39:00.262Z,6.60
2019-05-16T05:41:20.926Z,6.70
2019-05-16T05:43:50.333Z,6.80
2019-05-16T05:46:20.461Z,6.80
2019-05-16T05:48:50.499Z,7.00
2019-05-16T05:51:21.415Z,7.00
2019-05-16T05:53:51.067Z,7.10
2019-05-16T05:56:20.191Z,7.30
2019-05-16T05:58:51.175Z,7.40
2019-05-16T06:01:20.438Z,7.40
2019-05-16T06:03:50.556Z,7.50
2019-05-16T06:06:21.083Z,7.50
2019-05-16T06:08:50.446Z,7.70
2019-05-16T06:11:20.564Z,7.90
2019-05-16T06:13:50.126Z,8.20
2019-05-16T06:16:20.422Z,8.20
2019-05-16T06:18:50.261Z,8.50
2019-05-16T06:21:20.341Z,8.90
2019-05-16T06:23:50.926Z,9.40
2019-05-16T06:26:20.525Z,9.50
2019-05-16T06:28:50.512Z,9.70
2019-05-16T06:31:22.159Z,10.00
2019-05-16T06:33:50.471Z,10.40
2019-05-16T06:36:20.470Z,10.70
2019-05-16T06:38:49.942Z,11.00
2019-05-16T06:41:19.919Z,11.40
2019-05-16T06:43:50.700Z,11.70
2019-05-16T06:46:20.218Z,12.20
2019-05-16T06:48:50.593Z,12.70
2019-05-16T06:51:20.151Z,13.30
2019-05-16T06:53:49.991Z,13.90
2019-05-16T06:56:20.017Z,14.30
2019-05-16T06:58:52.019Z,14.60
2019-05-16T07:01:20.861Z,14.70
2019-05-16T07:03:50.811Z,14.90
2019-05-16T07:06:46.046Z,15.00
2019-05-16T07:08:51.064Z,15.00
2019-05-16T07:11:20.329Z,15.00
2019-05-16T07:13:51.937Z,14.80
2019-05-16T07:16:20.612Z,14.90
2019-05-16T07:18:50.573Z,15.10
2019-05-16T07:21:20.400Z,15.20
2019-05-16T07:23:51.054Z,15.50
2019-05-16T07:26:20.693Z,15.50
2019-05-16T07:28:51.587Z,15.90
2019-05-16T07:31:22.631Z,16.10
2019-05-16T07:33:51.224Z,16.30
2019-05-16T07:36:20.859Z,16.60
2019-05-16T07:38:50.844Z,17.00
2019-05-16T07:41:20.574Z,17.20
2019-05-16T07:43:50.595Z,17.30
2019-05-16T07:46:20.709Z,17.30
2019-05-16T07:48:51.887Z,17.80
2019-05-16T07:51:20.725Z,18.50
2019-05-16T07:53:50.512Z,19.00
2019-05-16T07:56:20.366Z,19.30
2019-05-16T07:58:50.791Z,19.50
2019-05-16T08:01:20.221Z,19.70
2019-05-16T08:03:50.929Z,19.70
2019-05-16T08:06:20.208Z,19.30
2019-05-16T08:08:50.917Z,19.50
2019-05-16T08:11:23.533Z,19.60
2019-05-16T08:13:50.994Z,18.90
2019-05-16T08:16:20.807Z,18.90
2019-05-16T08:18:50.789Z,18.90
2019-05-16T08:21:20.390Z,18.30
2019-05-16T08:23:50.547Z,18.50
2019-05-16T08:28:50.763Z,18.60
2019-05-16T08:33:21.289Z,18.50
2019-05-16T08:33:21.307Z,18.60
2019-05-16T08:33:53.870Z,18.80
2019-05-16T08:36:21.542Z,18.80
2019-05-16T08:38:51.643Z,18.80
2019-05-16T08:41:22.114Z,18.90
2019-05-16T08:43:52.902Z,19.20
2019-05-16T08:46:22.471Z,19.20
2019-05-16T08:48:53.848Z,19.20
2019-05-16T08:51:22.522Z,19.30
2019-05-16T08:53:51.671Z,19.40
2019-05-16T08:56:21.789Z,20.10
2019-05-16T08:58:53.761Z,20.70
2019-05-16T09:01:22.403Z,21.10
2019-05-16T09:03:52.338Z,21.70
2019-05-16T09:06:22.838Z,22.00
2019-05-16T09:08:52.581Z,22.00
2019-05-16T09:11:39.220Z,22.30
2019-05-16T09:13:52.486Z,22.70
2019-05-16T09:16:21.500Z,22.60
2019-05-16T09:18:51.148Z,22.10
2019-05-16T09:21:20.494Z,21.00
2019-05-16T09:23:49.505Z,21.50
2019-05-16T09:26:19.801Z,21.70
2019-05-16T09:28:49.597Z,22.10
2019-05-16T09:31:19.417Z,22.20
2019-05-16T09:33:48.455Z,22.10
2019-05-16T09:36:17.671Z,22.30
2019-05-16T09:38:48.549Z,22.30
2019-05-16T09:41:17.845Z,22.30
2019-05-16T09:43:49.078Z,22.80
2019-05-16T09:46:18.565Z,22.80
2019-05-16T09:49:11.676Z,23.10
2019-05-16T09:51:28.195Z,23.00
2019-05-16T09:53:57.305Z,23.30
2019-05-16T09:56:27.028Z,23.20
2019-05-16T09:58:57.410Z,22.70
2019-05-16T10:01:27.631Z,22.30
2019-05-16T10:03:56.829Z,22.50
2019-05-16T10:06:27.592Z,22.40
2019-05-16T10:08:57.044Z,22.40
2019-05-16T10:11:31.028Z,22.00
2019-05-16T10:13:57.066Z,22.10
2019-05-16T10:16:27.510Z,22.20
2019-05-16T10:18:56.910Z,21.60
2019-05-16T10:21:27.170Z,22.00
2019-05-16T10:23:56.551Z,22.20
2019-05-16T10:26:27.758Z,22.10
2019-05-16T10:28:57.888Z,22.20
2019-05-16T10:31:41.654Z,22.10
2019-05-16T10:33:58.586Z,22.00
2019-05-16T10:36:28.257Z,22.00
2019-05-16T10:38:59.170Z,21.80
2019-05-16T10:41:28.248Z,21.70
2019-05-16T10:43:57.266Z,21.40
2019-05-16T10:46:26.944Z,21.10
2019-05-16T10:48:57.752Z,21.20
2019-05-16T10:51:27.088Z,21.10
2019-05-16T10:54:09.109Z,21.10
2019-05-16T10:56:27.250Z,20.30
2019-05-16T10:59:26.015Z,20.50
2019-05-16T11:01:30.938Z,20.10
2019-05-16T11:03:57.741Z,20.10
2019-05-16T11:06:29.439Z,20.00
2019-05-16T11:08:57.433Z,20.60
2019-05-16T11:11:27.407Z,20.40
2019-05-16T11:13:56.533Z,20.30
2019-05-16T11:16:27.418Z,20.60
2019-05-16T11:19:12.550Z,20.10
2019-05-16T11:21:27.042Z,20.10
2019-05-16T11:23:56.580Z,19.80
2019-05-16T11:26:27.550Z,19.80
2019-05-16T11:28:56.783Z,20.00
2019-05-16T11:31:26.691Z,19.90
2019-05-16T11:33:57.482Z,19.90
2019-05-16T11:36:26.902Z,20.40
2019-05-16T11:39:01.041Z,20.20
2019-05-16T11:41:27.583Z,19.90
2019-05-16T11:43:56.911Z,19.60
2019-05-16T11:46:28.196Z,20.00
2019-05-16T11:48:56.985Z,19.70
2019-05-16T11:51:27.214Z,19.90
2019-05-16T11:53:59.971Z,19.30
2019-05-16T11:56:27.002Z,19.60
2019-05-16T11:58:57.069Z,19.60
2019-05-16T12:01:27.495Z,19.80
2019-05-16T12:03:57.504Z,19.50
2019-05-16T12:06:27.020Z,19.50
2019-05-16T12:08:56.090Z,19.40
2019-05-16T12:11:27.489Z,19.50
2019-05-16T12:13:56.738Z,19.70
2019-05-16T12:16:27.539Z,19.10
2019-05-16T12:18:57.137Z,19.10
2019-05-16T12:21:27.426Z,18.90
2019-05-16T12:23:56.593Z,19.30
2019-05-16T12:26:27.893Z,19.40
2019-05-16T12:28:57.339Z,19.20
2019-05-16T12:31:26.377Z,19.50
2019-05-16T12:33:59.409Z,19.30
2019-05-16T12:36:26.787Z,19.40
2019-05-16T12:38:57.539Z,19.50
2019-05-16T12:41:28.753Z,19.60
2019-05-16T12:43:58.099Z,19.70
2019-05-16T12:46:27.338Z,20.10
2019-05-16T12:48:57.584Z,20.20
2019-05-16T12:51:27.235Z,20.10
2019-05-16T12:53:57.177Z,19.90
2019-05-16T12:56:27.198Z,20.30
2019-05-16T12:58:56.594Z,20.50
2019-05-16T13:01:30.491Z,20.00
2019-05-16T13:03:56.361Z,20.00
2019-05-16T13:06:27.684Z,19.70
2019-05-16T13:08:57.296Z,19.60
2019-05-16T13:11:27.019Z,19.80
2019-05-16T13:14:03.535Z,19.90
2019-05-16T13:16:28.203Z,19.90
2019-05-16T13:18:57.281Z,20.00
2019-05-16T13:21:27.550Z,19.90
2019-05-16T13:23:57.562Z,19.50
2019-05-16T13:26:26.831Z,19.40
2019-05-16T13:28:57.747Z,19.70
2019-05-16T13:31:28.617Z,20.00
2019-05-16T13:33:57.349Z,20.10
2019-05-16T13:36:27.166Z,20.20
2019-05-16T13:38:57.362Z,20.30
2019-05-16T13:41:27.331Z,20.40
2019-05-16T13:43:56.617Z,20.20
2019-05-16T13:46:26.584Z,20.10
2019-05-16T13:48:55.695Z,20.40
2019-05-16T13:51:26.571Z,20.50
2019-05-16T13:53:55.269Z,20.60
2019-05-16T13:56:27.111Z,20.20
2019-05-16T13:58:56.983Z,19.90
2019-05-16T14:01:27.639Z,20.00
2019-05-16T14:03:57.245Z,20.30
2019-05-16T14:06:26.845Z,20.00
2019-05-16T14:08:56.811Z,20.00
2019-05-16T14:11:26.254Z,19.60
2019-05-16T14:13:56.352Z,19.40
2019-05-16T14:16:26.945Z,19.40
2019-05-16T14:18:57.425Z,19.60
2019-05-16T14:21:26.554Z,19.40
2019-05-16T14:23:56.905Z,19.40
2019-05-16T14:26:26.933Z,19.40
2019-05-16T14:28:57.713Z,19.70
2019-05-16T14:31:26.582Z,19.80
2019-05-16T14:33:56.756Z,19.80
2019-05-16T14:36:27.833Z,19.70
2019-05-16T14:38:57.486Z,19.50
2019-05-16T14:41:27.948Z,19.60
2019-05-16T14:43:57.333Z,19.60
2019-05-16T14:46:27.395Z,19.80
2019-05-16T14:48:56.554Z,20.10
2019-05-16T14:51:28.180Z,20.30
2019-05-16T14:53:57.305Z,20.20
2019-05-16T14:56:27.243Z,20.20
2019-05-16T14:58:57.691Z,19.90
2019-05-16T15:01:27.139Z,19.80
2019-05-16T15:03:56.548Z,20.00
2019-05-16T15:06:27.531Z,20.00
2019-05-16T15:08:56.765Z,20.00
2019-05-16T15:11:28.209Z,19.80
2019-05-16T15:13:57.502Z,19.70
2019-05-16T15:16:27.356Z,19.60
2019-05-16T15:18:57.599Z,19.70
2019-05-16T15:21:26.815Z,19.80
2019-05-16T15:23:59.444Z,19.90
2019-05-16T15:26:29.434Z,19.90
2019-05-16T15:28:59.173Z,19.80
2019-05-16T15:31:28.379Z,19.90
2019-05-16T15:33:57.469Z,19.50
2019-05-16T15:36:27.082Z,19.60
2019-05-16T15:38:59.454Z,19.40
2019-05-16T15:41:27.323Z,19.30
2019-05-16T15:43:59.103Z,19.30
2019-05-16T15:46:27.128Z,19.20
2019-05-16T15:48:57.532Z,19.00
2019-05-16T15:51:27.521Z,19.10
2019-05-16T15:53:57.492Z,19.20
2019-05-16T15:56:27.078Z,19.30
2019-05-16T15:58:56.211Z,19.30
2019-05-16T16:01:27.069Z,19.30
2019-05-16T16:03:55.933Z,19.30
2019-05-16T16:06:27.425Z,19.30
2019-05-16T16:08:56.658Z,19.20
2019-05-16T16:11:27.289Z,19.20
2019-05-16T16:13:57.674Z,19.10
2019-05-16T16:16:26.893Z,19.30
2019-05-16T16:19:01.610Z,19.30
2019-05-16T16:21:30.877Z,19.30
2019-05-16T16:24:00.127Z,19.20
2019-05-16T16:26:31.194Z,19.20
2019-05-16T16:29:00.409Z,19.20
2019-05-16T16:31:29.800Z,19.10
2019-05-16T16:33:59.202Z,19.10
2019-05-16T16:36:28.432Z,19.00
2019-05-16T16:39:01.028Z,19.00
2019-05-16T16:41:30.826Z,18.90
2019-05-16T16:43:59.958Z,18.60
2019-05-16T16:46:28.893Z,18.50
2019-05-16T16:48:57.863Z,18.60
2019-05-16T16:51:27.062Z,18.60
2019-05-16T16:53:57.037Z,18.60
2019-05-16T16:56:27.404Z,18.70
2019-05-16T16:58:56.619Z,18.60
2019-05-16T17:01:27.234Z,18.50
2019-05-16T17:03:57.487Z,18.50
2019-05-16T17:06:27.153Z,18.60
2019-05-16T17:08:56.844Z,18.50
2019-05-16T17:11:26.552Z,18.40
2019-05-16T17:13:56.555Z,18.50
2019-05-16T17:16:28.919Z,18.40
2019-05-16T17:18:56.880Z,18.40
2019-05-16T17:21:26.118Z,18.20
2019-05-16T17:23:56.909Z,18.20
2019-05-16T17:26:27.471Z,18.20
2019-05-16T17:28:57.101Z,18.20
2019-05-16T17:31:26.520Z,18.00
2019-05-16T17:33:57.752Z,17.90
2019-05-16T17:36:26.663Z,17.70
2019-05-16T17:38:57.110Z,17.80
2019-05-16T17:41:27.323Z,17.80
2019-05-16T17:43:59.638Z,17.60
2019-05-16T17:46:36.830Z,17.60
2019-05-16T17:48:59.363Z,17.60
2019-05-16T17:51:28.352Z,17.60
2019-05-16T17:53:57.372Z,17.60
2019-05-16T17:56:26.569Z,17.70
2019-05-16T17:58:56.929Z,17.70
2019-05-16T18:01:27.440Z,17.50
2019-05-16T18:03:57.379Z,17.50
2019-05-16T18:06:27.199Z,17.40
2019-05-16T18:08:57.168Z,17.50
2019-05-16T18:11:26.787Z,17.50
2019-05-16T18:13:57.067Z,17.30
2019-05-16T18:16:26.240Z,17.20
2019-05-16T18:18:57.419Z,17.20
2019-05-16T18:21:26.510Z,17.00
2019-05-16T18:23:55.989Z,16.90
2019-05-16T18:26:26.878Z,16.90
2019-05-16T18:28:55.683Z,16.80
2019-05-16T18:31:26.536Z,16.90
2019-05-16T18:33:56.559Z,16.80
2019-05-16T18:36:26.501Z,16.60
2019-05-16T18:38:57.464Z,16.40
2019-05-16T18:41:27.246Z,16.30
2019-05-16T18:43:56.611Z,16.20
2019-05-16T18:46:26.958Z,16.10
2019-05-16T18:48:56.487Z,16.20
2019-05-16T18:51:26.469Z,16.00
2019-05-16T18:53:57.060Z,16.00
2019-05-16T18:56:27.191Z,15.90
2019-05-16T18:58:57.366Z,15.90
2019-05-16T19:01:27.759Z,15.70
2019-05-16T19:03:57.737Z,15.70
2019-05-16T19:06:27.729Z,15.70
2019-05-16T19:08:58.418Z,15.60
2019-05-16T19:11:28.306Z,15.60
2019-05-16T19:13:59.403Z,15.60
2019-05-16T19:16:29.394Z,15.50
2019-05-16T19:18:58.998Z,15.40
2019-05-16T19:21:31.371Z,15.40
2019-05-16T19:24:00.828Z,15.30
2019-05-16T19:26:30.256Z,15.20
2019-05-16T19:28:59.824Z,15.20
2019-05-16T19:31:29.441Z,15.10
2019-05-16T19:33:58.466Z,15.00
2019-05-16T19:36:27.476Z,15.00
2019-05-16T19:38:57.075Z,15.00
2019-05-16T19:41:26.117Z,14.90
2019-05-16T19:43:57.072Z,14.80
2019-05-16T19:46:27.185Z,14.80
2019-05-16T19:48:57.033Z,14.70
2019-05-16T19:51:26.904Z,14.80
2019-05-16T19:53:56.637Z,14.70
2019-05-16T19:56:26.946Z,14.70
2019-05-16T19:58:57.089Z,14.70
2019-05-16T20:01:27.401Z,14.60
2019-05-16T20:03:56.949Z,14.60
2019-05-16T20:06:27.486Z,14.50
2019-05-16T20:08:56.629Z,14.50
2019-05-16T20:11:27.779Z,14.40
2019-05-16T20:13:56.951Z,14.30
2019-05-16T20:16:27.321Z,14.30
2019-05-16T20:18:56.834Z,14.30
2019-05-16T20:21:27.488Z,14.10
2019-05-16T20:23:56.840Z,14.10
2019-05-16T20:26:27.370Z,14.00
2019-05-16T20:28:59.489Z,14.00
2019-05-16T20:31:28.192Z,13.90
2019-05-16T20:33:57.181Z,13.90
2019-05-16T20:36:26.459Z,13.80
2019-05-16T20:38:55.414Z,13.80
2019-05-16T20:41:24.657Z,13.80
2019-05-16T20:43:53.909Z,13.60
2019-05-16T20:46:22.911Z,13.70
2019-05-16T20:48:51.925Z,13.70
2019-05-16T20:51:21.690Z,13.70
2019-05-16T20:53:50.682Z,13.60
2019-05-16T20:56:19.773Z,13.60
2019-05-16T20:58:48.809Z,13.60
2019-05-16T21:01:17.949Z,13.50
2019-05-16T21:03:47.214Z,13.50
2019-05-16T21:06:17.062Z,13.40
2019-05-16T21:08:49.355Z,13.30
2019-05-16T21:11:17.276Z,13.20
2019-05-16T21:13:48.592Z,12.90
2019-05-16T21:16:17.174Z,12.80
2019-05-16T21:18:47.009Z,12.80
2019-05-16T21:21:19.265Z,12.80
2019-05-16T21:23:47.116Z,12.70
2019-05-16T21:26:16.249Z,12.60
2019-05-16T21:28:46.255Z,12.50
2019-05-16T21:31:16.381Z,12.30
2019-05-16T21:33:47.049Z,12.20
2019-05-16T21:36:19.133Z,12.20
2019-05-16T21:38:47.246Z,12.00
2019-05-16T21:41:16.805Z,11.90
2019-05-16T21:43:47.016Z,11.60
2019-05-16T21:46:17.129Z,11.60
2019-05-16T21:48:47.291Z,11.50
2019-05-16T21:51:19.364Z,11.50
2019-05-16T21:53:47.295Z,11.50
2019-05-16T21:56:17.617Z,11.30
2019-05-16T21:58:47.328Z,11.20
2019-05-16T22:01:20.385Z,11.10
2019-05-16T22:03:49.391Z,11.10
2019-05-16T22:06:18.440Z,11.10
2019-05-16T22:08:47.440Z,11.00
2019-05-16T22:11:17.267Z,10.90
2019-05-16T22:13:46.525Z,10.80
2019-05-16T22:16:17.564Z,10.70
2019-05-16T22:18:47.420Z,10.50
2019-05-16T22:21:17.291Z,10.50
2019-05-16T22:23:46.633Z,10.60
2019-05-16T22:26:16.787Z,10.50
2019-05-16T22:28:46.646Z,10.40
2019-05-16T22:31:16.724Z,10.40
2019-05-16T22:33:46.914Z,10.40
2019-05-16T22:36:17.292Z,10.20
2019-05-16T22:38:46.562Z,10.20
2019-05-16T22:41:17.255Z,10.30
2019-05-16T22:43:46.805Z,10.20
2019-05-16T22:46:17.713Z,10.00
2019-05-16T22:48:46.927Z,10.00
2019-05-16T22:51:16.501Z,10.00
2019-05-16T22:53:45.764Z,10.00
2019-05-16T22:56:14.788Z,10.00
2019-05-16T22:58:43.820Z,9.90
2019-05-16T23:01:12.988Z,9.90
2019-05-16T23:03:42.014Z,9.80
2019-05-16T23:06:11.219Z,9.70
2019-05-16T23:08:40.225Z,9.60
2019-05-16T23:11:09.218Z,9.60
2019-05-16T23:13:38.131Z,9.50
2019-05-16T23:16:07.128Z,9.50
2019-05-16T23:18:37.505Z,9.50
2019-05-16T23:21:06.826Z,9.50
2019-05-16T23:23:37.231Z,9.40
2019-05-16T23:26:06.555Z,9.40
2019-05-16T23:28:36.729Z,9.40
2019-05-16T23:31:06.289Z,9.30
2019-05-16T23:33:36.586Z,9.30
2019-05-16T23:36:07.086Z,9.30
2019-05-16T23:38:36.851Z,9.20
2019-05-16T23:41:06.596Z,9.10
2019-05-16T23:43:37.397Z,9.10
2019-05-16T23:46:07.062Z,9.10
2019-05-16T23:48:36.625Z,9.10
2019-05-16T23:51:07.870Z,9.00
2019-05-16T23:53:37.094Z,9.00
2019-05-16T23:56:07.389Z,9.00
2019-05-16T23:58:37.077Z,8.90
